Time;durP1;ratioP1;P1;durP2;ratioP2;P2;SDS_P1;SDS_P2;PMS_P1;PMS_P2;Temp;Humidity;BMP_temperature;BMP_pressure;BME280_temperature;BME280_humidity;BME280_pressure;Samples;Min_cycle;Max_cycle;Signal;HPM_P1;HPM_P2
2022/12/30 00:00:00;;;;;;;1.10;0.80;;;21.40;56.20;;;;;;6216992;23;20424;-87
2022/12/30 00:03:06;;;;;;;0.90;0.73;;;21.30;56.10;;;;;;6242939;23;20347;-87
2022/12/30 00:06:27;;;;;;;;;;;;;;;;;;;;;
2022/12/30 00:09:50;;;;;;;1.00;0.80;;;21.30;56.10;;;;;;6151707;23;20392;-87
2022/12/30 00:34:13;;;;;;;1.50;1.10;;;21.30;56.20;;;;;;6151911;23;20424;-86
2022/12/30 00:36:46;;;;;;;1.27;0.80;;;21.20;56.10;;;;;;6123607;23;20380;-86
2022/12/30 01:00:48;;;;;;;1.07;0.80;;;21.20;56.10;;;;;;6211841;23;20402;-88
2022/12/30 01:03:35;;;;;;;;;;;;;;;;;;;;;
2022/12/30 01:09:46;;;;;;;0.80;0.60;;;21.20;56.20;;;;;;6214822;23;20355;-87
2022/12/30 01:12:23;;;;;;;1.40;0.90;;;21.20;56.20;;;;;;6214126;23;20398;-87
2022/12/30 01:14:53;;;;;;;1.13;0.73;;;21.20;56.20;;;;;;6208539;23;20438;-87
2022/12/30 01:17:52;;;;;;;1.00;0.80;;;21.20;56.20;;;;;;6188453;23;20434;-87
2022/12/30 01:20:50;;;;;;;1.00;0.83;;;21.20;56.20;;;;;;6188461;23;20437;-87
2022/12/30 01:23:39;;;;;;;1.00;0.90;;;21.20;56.20;;;;;;6214534;23;20402;-87
2022/12/30 01:26:49;;;;;;;1.00;0.87;;;21.20;56.70;;;;;;6192625;23;20379;-87
2022/12/30 01:33:01;;;;;;;1.00;0.80;;;21.20;56.20;;;;;;6214336;23;20374;-87
2022/12/30 01:36:03;;;;;;;;;;;;;;;;;;;;;
2022/12/30 01:38:44;;;;;;;1.73;0.80;;;21.10;56.10;;;;;;6220151;23;20386;-87
2022/12/30 01:41:22;;;;;;;2.30;0.70;;;21.20;56.20;;;;;;6244491;23;20424;-87
2022/12/30 01:47:23;;;;;;;1.20;0.90;;;21.10;56.10;;;;;;6244353;23;20358;-87
2022/12/30 01:50:07;;;;;;;1.63;0.70;;;21.20;56.10;;;;;;6218369;23;20401;-87
2022/12/30 01:53:14;;;;;;;1.20;0.77;;;21.20;56.10;;;;;;6218014;23;20350;-87
2022/12/30 01:56:23;;;;;;;1.20;0.80;;;21.20;56.10;;;;;;6243153;23;20369;-87
2022/12/30 01:59:27;;;;;;;;;;;;;;;;;;;;;
2022/12/30 02:02:02;;;;;;;1.03;0.77;;;21.10;56.00;;;;;;6176930;23;20377;-87
2022/12/30 02:04:45;;;;;;;;;;;;;;;;;;;;;
2022/12/30 02:07:32;;;;;;;1.77;0.90;;;21.10;56.00;;;;;;6244231;23;20362;-87
2022/12/30 02:10:38;;;;;;;1.10;0.90;;;21.10;56.00;;;;;;6218500;23;20359;-87
2022/12/30 02:13:22;;;;;;;1.30;0.90;;;21.10;56.00;;;;;;6215818;23;20666;-87
2022/12/30 02:16:34;;;;;;;;;;;;;;;;;;;;;
2022/12/30 02:19:37;;;;;;;1.17;0.80;;;21.10;56.00;;;;;;6153113;23;20373;-86
2022/12/30 02:22:43;;;;;;;1.10;0.80;;;21.10;56.10;;;;;;6152209;23;20381;-87
2022/12/30 02:25:46;;;;;;;1.10;0.90;;;21.10;56.00;;;;;;6152945;23;20437;-86
2022/12/30 02:28:59;;;;;;;0.80;0.70;;;21.10;56.10;;;;;;6151615;23;20406;-87
2022/12/30 02:32:01;;;;;;;1.10;0.80;;;21.10;56.10;;;;;;6100917;23;20357;-87
2022/12/30 02:35:13;;;;;;;0.97;0.70;;;21.10;56.10;;;;;;6152024;23;20380;-87
2022/12/30 02:38:11;;;;;;;1.13;0.80;;;21.10;56.10;;;;;;6088772;23;20405;-87
2022/12/30 02:53:28;;;;;;;0.97;0.80;;;21.00;56.10;;;;;;6152266;23;20364;-88
2022/12/30 02:56:20;;;;;;;1.37;1.00;;;21.00;56.10;;;;;;6182177;23;20390;-87
2022/12/30 03:05:22;;;;;;;1.37;0.77;;;21.00;56.10;;;;;;6213404;23;20342;-88
2022/12/30 03:08:34;;;;;;;;;;;;;;;;;;;;;
2022/12/30 03:11:16;;;;;;;1.33;0.80;;;21.00;56.10;;;;;;6212740;23;20374;-88
2022/12/30 03:14:00;;;;;;;0.93;0.80;;;21.00;56.10;;;;;;6211479;23;20363;-88
2022/12/30 03:16:48;;;;;;;;;;;;;;;;;;;;;
2022/12/30 03:19:18;;;;;;;1.60;0.70;;;21.00;56.10;;;;;;6213260;23;20355;-87
2022/12/30 03:27:03;;;;;;;1.10;0.70;;;21.00;56.10;;;;;;6187061;23;20371;-88
2022/12/30 03:27:47;;;;;;;1.57;0.77;;;21.00;56.10;;;;;;6213253;23;20370;-88
2022/12/30 03:30:20;;;;;;;1.20;0.90;;;21.00;56.10;;;;;;6212927;23;20449;-88
2022/12/30 03:32:51;;;;;;;1.40;1.00;;;21.00;56.10;;;;;;6186922;23;20375;-88
2022/12/30 03:35:22;;;;;;;0.90;0.70;;;21.00;56.10;;;;;;6184606;23;20399;-87
2022/12/30 03:38:00;;;;;;;1.30;0.80;;;21.10;56.10;;;;;;6186793;23;20466;-88
2022/12/30 03:40:44;;;;;;;0.90;0.67;;;21.00;56.00;;;;;;6232200;23;20413;-87
2022/12/30 03:43:31;;;;;;;1.20;0.80;;;21.00;56.00;;;;;;6216810;23;20406;-88
2022/12/30 03:46:01;;;;;;;1.43;0.80;;;21.00;56.00;;;;;;6216665;23;20370;-88
2022/12/30 03:48:57;;;;;;;0.90;0.70;;;21.00;56.00;;;;;;6216321;23;20378;-87
2022/12/30 03:51:40;;;;;;;1.10;0.90;;;21.10;56.10;;;;;;6217136;23;20387;-88
2022/12/30 03:54:40;;;;;;;1.30;0.70;;;21.00;56.00;;;;;;6217368;23;20382;-88
2022/12/30 03:57:14;;;;;;;1.30;0.70;;;21.00;56.00;;;;;;6215103;23;20409;-87
2022/12/30 03:59:54;;;;;;;1.27;0.80;;;21.00;56.00;;;;;;6216113;23;20413;-88
2022/12/30 04:02:37;;;;;;;;;;;;;;;;;;;;;
2022/12/30 04:05:13;;;;;;;0.93;0.73;;;21.00;56.00;;;;;;6243112;23;20350;-88
2022/12/30 04:07:50;;;;;;;1.00;0.70;;;21.00;56.00;;;;;;6217191;23;20362;-88
2022/12/30 04:10:34;;;;;;;1.40;0.80;;;21.00;56.00;;;;;;6216667;23;20401;-88
2022/12/30 04:13:08;;;;;;;1.10;0.80;;;21.00;56.00;;;;;;6216247;23;20382;-88
2022/12/30 04:15:52;;;;;;;1.63;0.80;;;21.10;56.00;;;;;;6241271;23;20365;-88
2022/12/30 04:18:24;;;;;;;1.00;0.77;;;21.10;56.00;;;;;;6242410;23;20346;-88
2022/12/30 04:20:51;;;;;;;1.20;0.90;;;21.10;56.00;;;;;;6216559;23;20413;-88
2022/12/30 04:23:26;;;;;;;1.07;0.60;;;21.00;56.00;;;;;;6216737;23;20374;-88
2022/12/30 04:26:02;;;;;;;0.80;0.70;;;21.00;55.90;;;;;;6190752;23;20382;-87
2022/12/30 04:28:31;;;;;;;0.80;0.70;;;21.00;56.00;;;;;;6216796;23;20365;-87
2022/12/30 04:31:10;;;;;;;0.90;0.60;;;21.10;56.00;;;;;;6242547;23;20354;-87
2022/12/30 04:33:39;;;;;;;1.87;0.93;;;21.10;56.00;;;;;;6242758;23;20359;-87
2022/12/30 04:36:21;;;;;;;1.00;0.70;;;21.00;55.90;;;;;;6216124;23;20367;-86
2022/12/30 04:39:16;;;;;;;0.90;0.70;;;21.10;56.00;;;;;;6216421;23;20385;-87
2022/12/30 04:41:58;;;;;;;1.20;0.70;;;21.00;55.90;;;;;;6216390;23;20383;-88
2022/12/30 04:44:29;;;;;;;1.10;0.80;;;21.00;55.90;;;;;;6217212;23;20390;-88
2022/12/30 04:47:00;;;;;;;1.00;0.80;;;21.00;55.90;;;;;;6208898;23;20374;-87
2022/12/30 04:49:47;;;;;;;1.20;0.80;;;21.00;55.90;;;;;;6215220;23;20382;-88
2022/12/30 04:52:22;;;;;;;1.10;0.80;;;21.00;55.90;;;;;;6241785;23;20362;-87
2022/12/30 04:54:48;;;;;;;1.20;0.70;;;21.00;55.90;;;;;;6241970;23;20369;-87
2022/12/30 04:57:31;;;;;;;1.67;0.80;;;21.00;55.90;;;;;;6216294;23;20417;-87
2022/12/30 05:00:25;;;;;;;1.77;0.80;;;21.00;55.90;;;;;;6216290;23;20444;-87
2022/12/30 05:03:04;;;;;;;1.00;0.80;;;21.00;55.90;;;;;;6242440;23;20414;-87
2022/12/30 05:05:34;;;;;;;1.40;0.70;;;21.00;55.90;;;;;;6216869;23;20446;-87
2022/12/30 05:08:09;;;;;;;0.90;0.60;;;21.00;55.90;;;;;;6216109;23;20355;-87
2022/12/30 05:10:55;;;;;;;1.23;0.70;;;21.00;55.90;;;;;;6216617;23;20381;-87
2022/12/30 05:13:40;;;;;;;1.47;0.70;;;21.00;55.90;;;;;;6215887;23;20366;-87
2022/12/30 05:16:15;;;;;;;1.00;0.70;;;21.00;55.90;;;;;;6241377;23;20369;-86
2022/12/30 05:18:48;;;;;;;1.40;0.90;;;21.00;55.90;;;;;;6217054;23;20347;-87
2022/12/30 05:21:29;;;;;;;1.73;0.87;;;21.00;55.90;;;;;;6216362;23;20406;-87
2022/12/30 05:27:04;;;;;;;1.00;0.80;;;21.00;55.90;;;;;;6242371;23;20345;-87
2022/12/30 05:29:55;;;;;;;0.90;0.70;;;21.00;55.90;;;;;;6193425;23;20374;-87
2022/12/30 05:33:00;;;;;;;0.90;0.70;;;21.00;55.90;;;;;;6216148;23;20441;-88
2022/12/30 05:35:50;;;;;;;1.57;0.80;;;21.00;55.90;;;;;;6216392;23;20370;-88
2022/12/30 05:38:31;;;;;;;0.90;0.70;;;21.00;55.90;;;;;;6216019;23;20433;-87
2022/12/30 05:41:00;;;;;;;1.07;0.87;;;21.00;56.00;;;;;;6215787;23;20453;-88
2022/12/30 05:43:42;;;;;;;1.03;0.70;;;21.00;55.90;;;;;;6216530;23;20354;-87
2022/12/30 05:46:31;;;;;;;0.90;0.70;;;21.00;56.00;;;;;;6216640;23;20450;-88
2022/12/30 05:49:04;;;;;;;0.80;0.60;;;21.00;56.00;;;;;;6244244;23;20351;-88
2022/12/30 05:51:48;;;;;;;1.00;0.80;;;21.00;56.00;;;;;;6244097;23;20367;-88
2022/12/30 05:54:36;;;;;;;1.00;0.80;;;21.00;56.00;;;;;;6218239;23;20373;-88
2022/12/30 06:00:00;;;;;;;0.93;0.70;;;21.00;55.90;;;;;;6238164;23;20446;-88
2022/12/30 06:05:57;;;;;;;0.80;0.60;;;21.00;56.00;;;;;;6224439;23;20381;-87
2022/12/30 06:08:36;;;;;;;1.20;0.80;;;21.00;56.00;;;;;;6244097;23;20365;-88
2022/12/30 06:11:21;;;;;;;1.10;0.80;;;21.00;56.00;;;;;;6217544;23;20381;-87
2022/12/30 06:14:00;;;;;;;1.23;0.70;;;21.00;56.00;;;;;;6241833;23;20367;-87
2022/12/30 06:16:47;;;;;;;;;;;;;;;;;;;;;
2022/12/30 06:19:18;;;;;;;1.70;0.70;;;21.00;56.00;;;;;;6239386;23;20374;-87
2022/12/30 06:21:50;;;;;;;0.90;0.70;;;21.00;56.00;;;;;;6243858;23;20358;-87
2022/12/30 06:24:28;;;;;;;1.30;0.80;;;21.00;55.90;;;;;;6218428;23;20359;-87
2022/12/30 06:27:12;;;;;;;1.70;1.07;;;21.00;55.90;;;;;;6217960;23;20378;-87
2022/12/30 06:29:38;;;;;;;1.23;0.73;;;21.00;55.90;;;;;;6217723;23;20383;-87
2022/12/30 06:32:14;;;;;;;1.00;0.70;;;21.00;55.90;;;;;;6218114;23;20379;-87
2022/12/30 06:34:57;;;;;;;;;;;;;;;;;;;;;
2022/12/30 06:37:25;;;;;;;1.23;0.80;;;21.00;55.90;;;;;;6244123;23;20339;-87
2022/12/30 06:39:56;;;;;;;1.00;0.77;;;21.00;55.90;;;;;;6217102;23;20430;-86
2022/12/30 06:42:44;;;;;;;1.30;0.90;;;21.00;55.80;;;;;;6217525;23;20374;-87
2022/12/30 06:45:32;;;;;;;1.00;0.80;;;21.00;55.90;;;;;;6243615;23;20366;-87
2022/12/30 06:48:43;;;;;;;;;;;;;;;;;;;;;
2022/12/30 06:51:14;;;;;;;1.33;0.80;;;21.10;56.50;;;;;;6243791;23;20357;-87
2022/12/30 06:57:49;;;;;;;1.00;0.60;;;21.10;56.00;;;;;;6243864;23;20331;-86
2022/12/30 07:00:31;;;;;;;1.40;0.90;;;21.10;56.00;;;;;;6217257;23;20406;-86
2022/12/30 07:03:53;;;;;;;;;;;;;;;;;;;;;
2022/12/30 07:06:53;;;;;;;1.10;0.80;;;21.10;56.00;;;;;;6243368;23;20343;-86
2022/12/30 07:12:21;;;;;;;1.10;0.90;;;21.10;56.00;;;;;;6227551;23;20425;-87
2022/12/30 07:15:06;;;;;;;1.00;0.70;;;21.20;56.10;;;;;;6217215;23;20419;-88
2022/12/30 07:18:08;;;;;;;0.90;0.70;;;21.20;56.10;;;;;;6216811;23;20367;-87
2022/12/30 07:24:05;;;;;;;1.17;0.77;;;21.20;56.00;;;;;;6204860;23;20400;-88
2022/12/30 07:27:28;;;;;;;;;;;;;;;;;;;;;
2022/12/30 07:30:00;;;;;;;1.13;0.80;;;21.30;56.10;;;;;;6193942;23;20353;-88
2022/12/30 07:32:43;;;;;;;1.70;0.70;;;21.30;56.10;;;;;;6213821;23;20390;-88
2022/12/30 07:38:59;;;;;;;;;;;;;;;;;;;;;
2022/12/30 07:41:59;;;;;;;1.50;0.90;;;21.30;56.00;;;;;;6243568;23;20417;-88
2022/12/30 07:44:45;;;;;;;0.83;0.60;;;21.30;56.10;;;;;;6193720;23;20366;-88
2022/12/30 07:47:45;;;;;;;1.00;0.80;;;21.30;56.00;;;;;;6217250;23;20781;-87
2022/12/30 07:50:43;;;;;;;;;;;;;;;;;;;;;
2022/12/30 08:31:33;;;;;;;1.20;0.70;;;21.40;56.00;;;;;;5870360;24;20361;-86
2022/12/30 08:34:45;;;;;;;1.93;0.70;;;21.40;56.00;;;;;;5870605;24;20363;-88
2022/12/30 08:37:20;;;;;;;0.80;0.60;;;21.40;56.10;;;;;;5892924;24;20381;-87
2022/12/30 08:43:33;;;;;;;1.00;0.60;;;21.40;56.60;;;;;;5924678;24;20401;-87
2022/12/30 08:46:57;;;;;;;1.30;0.80;;;21.40;56.00;;;;;;5903233;24;20448;-87
2022/12/30 08:52:31;;;;;;;;;;;;;;;;;;;;;
2022/12/30 08:55:30;;;;;;;1.00;0.60;;;21.40;56.00;;;;;;6007639;24;20385;-88
2022/12/30 08:58:18;;;;;;;1.03;0.80;;;21.40;56.00;;;;;;6022813;23;20595;-88
2022/12/30 09:00:50;;;;;;;1.10;0.70;;;21.40;56.00;;;;;;6040553;23;20415;-88
2022/12/30 09:03:36;;;;;;;1.10;0.80;;;21.40;56.00;;;;;;6085214;23;20417;-88
2022/12/30 09:19:44;;;;;;;0.90;0.70;;;21.40;56.00;;;;;;6243093;23;20365;-88
2022/12/30 09:22:25;;;;;;;0.90;0.70;;;21.40;56.00;;;;;;6215858;23;20366;-87
2022/12/30 09:25:50;;;;;;;0.90;0.70;;;21.40;56.10;;;;;;6215478;23;20372;-88
2022/12/30 09:35:20;;;;;;;0.90;0.70;;;21.40;56.00;;;;;;6124076;23;20349;-88
2022/12/30 09:45:17;;;;;;;1.03;0.83;;;21.40;56.00;;;;;;5981560;24;20354;-87
2022/12/30 09:48:33;;;;;;;;;;;;;;;;;;;;;
2022/12/30 09:51:58;;;;;;;1.00;0.80;;;21.40;56.00;;;;;;5980612;24;20394;-87
2022/12/30 09:54:44;;;;;;;1.00;0.80;;;21.40;56.00;;;;;;5980663;24;20389;-87
2022/12/30 10:01:44;;;;;;;1.03;0.70;;;21.40;56.00;;;;;;5980798;24;20429;-88
2022/12/30 10:04:31;;;;;;;;;;;;;;;;;;;;;
2022/12/30 10:14:40;;;;;;;1.77;0.70;;;21.40;56.00;;;;;;6027109;23;20358;-87
2022/12/30 10:17:32;;;;;;;1.10;0.80;;;21.40;56.10;;;;;;6094441;23;20385;-87
2022/12/30 10:20:20;;;;;;;;;;;;;;;;;;;;;
2022/12/30 10:37:05;;;;;;;1.27;0.60;;;21.40;56.00;;;;;;5981194;23;20349;-87
2022/12/30 10:40:42;;;;;;;;;;;;;;;;;;;;;
2022/12/30 10:46:58;;;;;;;0.80;0.63;;;21.40;56.10;;;;;;5923150;24;20403;-88
2022/12/30 10:50:34;;;;;;;;;;;;;;;;;;;;;
2022/12/30 11:03:52;;;;;;;1.00;0.70;;;21.40;56.10;;;;;;5963659;24;20383;-87
2022/12/30 11:07:21;;;;;;;;;;;;;;;;;;;;;
2022/12/30 11:17:36;;;;;;;;;;;;;;;;;;;;;
2022/12/30 11:39:01;;;;;;;0.90;0.67;;;21.30;56.10;;;;;;5818198;24;20378;-87
2022/12/30 11:46:08;;;;;;;;;;;;;;;;;;;;;
2022/12/30 11:49:26;;;;;;;;;;;;;;;;;;;;;
2022/12/30 11:52:12;;;;;;;1.10;0.80;;;21.40;56.20;;;;;;5764948;25;20381;-86
2022/12/30 11:55:29;;;;;;;;;;;;;;;;;;;;;
2022/12/30 11:58:43;;;;;;;0.90;0.60;;;21.40;56.10;;;;;;5864961;24;20383;-87
2022/12/30 12:02:28;;;;;;;1.33;0.80;;;21.40;56.10;;;;;;5932978;24;20455;-86
2022/12/30 12:05:42;;;;;;;;;;;;;;;;;;;;;
2022/12/30 12:25:21;;;;;;;;;;;;;;;;;;;;;
2022/12/30 12:32:04;;;;;;;;;;;;;;;;;;;;;
2022/12/30 12:35:11;;;;;;;0.90;0.70;;;21.40;56.20;;;;;;6008009;24;20357;-88
2022/12/30 12:38:18;;;;;;;0.90;0.60;;;21.30;56.10;;;;;;6031020;23;20395;-88
2022/12/30 12:41:23;;;;;;;;;;;;;;;;;;;;;
2022/12/30 12:54:45;;;;;;;0.90;0.70;;;21.30;56.10;;;;;;6209765;23;20397;-87
2022/12/30 13:08:23;;;;;;;0.93;0.70;;;21.30;56.10;;;;;;6210853;23;20362;-87
2022/12/30 13:11:34;;;;;;;0.90;0.60;;;21.30;56.20;;;;;;6185945;23;20425;-87
2022/12/30 13:34:44;;;;;;;0.90;0.60;;;21.30;56.10;;;;;;5843045;24;20383;-88
2022/12/30 13:44:49;;;;;;;1.10;0.60;;;21.40;56.20;;;;;;5825628;24;20386;-86
2022/12/30 13:47:43;;;;;;;0.77;0.57;;;21.30;56.10;;;;;;5821308;24;20396;-86
2022/12/30 13:51:05;;;;;;;;;;;;;;;;;;;;;
2022/12/30 14:00:46;;;;;;;1.00;0.67;;;21.30;56.10;;;;;;5951578;24;20494;-88
2022/12/30 14:07:13;;;;;;;0.97;0.77;;;21.30;56.60;;;;;;6006761;24;20373;-88
2022/12/30 14:13:55;;;;;;;0.80;0.60;;;21.30;56.00;;;;;;5963393;24;20372;-87
2022/12/30 14:23:38;;;;;;;1.00;0.80;;;21.30;56.10;;;;;;5967311;23;20464;-86
2022/12/30 14:34:22;;;;;;;;;;;;;;;;;;;;;
2022/12/30 14:48:22;;;;;;;;;;;;;;;;;;;;;
2022/12/30 14:54:43;;;;;;;;;;;;;;;;;;;;;
2022/12/30 15:04:55;;;;;;;;;;;;;;;;;;;;;
2022/12/30 15:08:11;;;;;;;1.07;0.77;;;21.30;56.10;;;;;;6082908;23;20381;-87
2022/12/30 15:11:31;;;;;;;;;;;;;;;;;;;;;
2022/12/30 15:14:15;;;;;;;0.90;0.63;;;21.30;56.10;;;;;;6028113;23;20396;-87
2022/12/30 15:17:24;;;;;;;1.00;0.60;;;21.30;56.10;;;;;;6036305;23;20379;-88
2022/12/30 15:27:36;;;;;;;0.80;0.60;;;21.30;56.10;;;;;;5952501;24;20495;-86
2022/12/30 15:30:39;;;;;;;1.00;0.60;;;21.30;56.10;;;;;;5924717;24;20387;-87
2022/12/30 15:39:44;;;;;;;0.90;0.60;;;21.30;56.10;;;;;;5952867;23;20387;-87
2022/12/30 15:52:58;;;;;;;0.80;0.67;;;21.30;56.10;;;;;;5978859;24;20390;-87
2022/12/30 15:59:23;;;;;;;1.00;0.73;;;21.30;56.10;;;;;;5980559;23;20409;-88
2022/12/30 16:02:48;;;;;;;;;;;;;;;;;;;;;
2022/12/30 16:33:19;;;;;;;0.90;0.60;;;21.40;56.10;;;;;;5764730;25;20412;-86
2022/12/30 16:36:15;;;;;;;0.87;0.60;;;21.40;56.70;;;;;;5764754;25;20415;-86
2022/12/30 16:38:51;;;;;;;1.00;0.80;;;21.40;56.10;;;;;;5800382;24;20861;-86
2022/12/30 16:50:51;;;;;;;0.87;0.60;;;21.50;56.10;;;;;;5924422;24;20459;-87
2022/12/30 16:56:59;;;;;;;1.10;0.80;;;21.50;56.10;;;;;;6093126;23;20388;-87
2022/12/30 17:03:24;;;;;;;0.90;0.60;;;21.50;56.10;;;;;;6185874;23;20371;-87
2022/12/30 17:06:07;;;;;;;0.90;0.70;;;21.50;56.10;;;;;;6180373;23;20360;-86
2022/12/30 17:16:24;;;;;;;;;;;;;;;;;;;;;
2022/12/30 17:19:37;;;;;;;;;;;;;;;;;;;;;
2022/12/30 17:22:37;;;;;;;;;;;;;;;;;;;;;
2022/12/30 17:25:20;;;;;;;1.10;0.80;;;21.40;56.00;;;;;;6117943;23;20362;-87
2022/12/30 17:27:57;;;;;;;0.80;0.60;;;21.40;56.00;;;;;;6098132;23;20369;-87
2022/12/30 17:30:49;;;;;;;0.80;0.60;;;21.50;56.10;;;;;;6121704;23;20405;-87
2022/12/30 17:33:41;;;;;;;;;;;;;;;;;;;;;
2022/12/30 17:36:45;;;;;;;0.93;0.60;;;21.50;56.00;;;;;;6122308;23;20358;-87
2022/12/30 17:40:00;;;;;;;;;;;;;;;;;;;;;
2022/12/30 17:42:45;;;;;;;1.00;0.70;;;21.50;56.00;;;;;;5993533;23;20390;-87
2022/12/30 17:49:07;;;;;;;1.30;0.80;;;21.50;56.00;;;;;;6211354;23;20351;-87
2022/12/30 17:52:22;;;;;;;0.80;0.60;;;21.50;56.00;;;;;;6185796;23;20363;-87
2022/12/30 17:58:56;;;;;;;;;;;;;;;;;;;;;
2022/12/30 18:01:36;;;;;;;0.90;0.70;;;21.50;56.00;;;;;;5952663;24;20427;-87
2022/12/30 18:04:18;;;;;;;1.00;0.80;;;21.50;56.00;;;;;;6013330;23;20405;-88
2022/12/30 18:07:12;;;;;;;0.90;0.60;;;21.50;56.00;;;;;;6013058;23;20488;-87
2022/12/30 18:13:25;;;;;;;0.90;0.60;;;21.50;56.50;;;;;;6036453;23;20404;-87
2022/12/30 18:15:57;;;;;;;0.80;0.60;;;21.50;56.00;;;;;;6013636;23;20368;-87
2022/12/30 18:18:26;;;;;;;0.90;0.60;;;21.50;56.00;;;;;;6037000;23;20416;-87
2022/12/30 18:21:10;;;;;;;0.90;0.60;;;21.50;56.00;;;;;;6013454;23;20424;-88
2022/12/30 18:24:30;;;;;;;1.20;0.80;;;21.50;56.00;;;;;;6012883;23;20376;-87
2022/12/30 18:27:07;;;;;;;0.90;0.70;;;21.50;55.90;;;;;;6013856;23;20391;-88
2022/12/30 18:29:39;;;;;;;0.80;0.60;;;21.50;56.00;;;;;;6038751;23;20423;-87
2022/12/30 18:42:45;;;;;;;1.03;0.70;;;21.50;55.90;;;;;;6152749;23;20514;-87
2022/12/30 18:45:35;;;;;;;;;;;;;;;;;;;;;
2022/12/30 18:48:08;;;;;;;0.90;0.60;;;21.50;56.10;;;;;;6152846;23;20361;-87
2022/12/30 18:51:11;;;;;;;;;;;;;;;;;;;;;
2022/12/30 18:53:58;;;;;;;1.00;0.70;;;21.50;56.00;;;;;;6123193;23;20366;-86
2022/12/30 18:56:55;;;;;;;0.80;0.60;;;21.50;56.00;;;;;;6157641;23;20446;-86
2022/12/30 19:00:12;;;;;;;0.90;0.60;;;21.50;56.00;;;;;;6216850;23;20410;-87
2022/12/30 19:03:24;;;;;;;1.10;0.80;;;21.50;56.00;;;;;;6216340;23;20388;-87
2022/12/30 19:22:47;;;;;;;0.90;0.60;;;21.40;56.00;;;;;;6193648;23;20453;-87
2022/12/30 19:25:21;;;;;;;0.80;0.70;;;21.40;56.00;;;;;;6189246;23;20385;-87
2022/12/30 19:28:08;;;;;;;1.20;0.60;;;21.40;56.00;;;;;;6216425;23;20394;-87
2022/12/30 19:30:55;;;;;;;0.80;0.60;;;21.40;56.00;;;;;;6217724;23;20374;-87
2022/12/30 19:36:55;;;;;;;1.00;0.60;;;21.50;56.00;;;;;;6243435;23;20357;-87
2022/12/30 19:39:58;;;;;;;0.90;0.60;;;21.40;55.90;;;;;;6216933;23;20370;-86
2022/12/30 19:43:54;;;;;;;0.90;0.70;;;21.40;55.90;;;;;;6216252;23;20388;-87
2022/12/30 19:46:27;;;;;;;0.87;0.60;;;21.40;55.90;;;;;;6057128;23;20401;-87
2022/12/30 19:49:04;;;;;;;1.00;0.73;;;21.40;56.00;;;;;;6098455;23;20441;-87
2022/12/30 19:55:00;;;;;;;;;;;;;;;;;;;;;
2022/12/30 20:01:14;;;;;;;1.10;0.70;;;21.50;56.00;;;;;;6015306;23;20493;-86
2022/12/30 20:04:12;;;;;;;1.20;0.77;;;21.50;56.00;;;;;;6008677;23;20396;-87
2022/12/30 20:07:23;;;;;;;0.90;0.60;;;21.40;55.90;;;;;;5980861;24;20385;-87
2022/12/30 20:09:57;;;;;;;0.80;0.60;;;21.50;56.00;;;;;;5929595;24;20394;-86
2022/12/30 20:16:42;;;;;;;0.90;0.60;;;21.40;55.90;;;;;;5887291;24;20401;-86
2022/12/30 20:19:25;;;;;;;1.20;0.80;;;21.40;55.90;;;;;;5901488;24;20385;-87
2022/12/30 20:25:26;;;;;;;0.87;0.60;;;21.40;55.90;;;;;;5914884;24;20368;-87
2022/12/30 20:28:10;;;;;;;0.80;0.60;;;21.40;55.90;;;;;;5881415;24;20384;-87
2022/12/30 20:31:18;;;;;;;;;;;;;;;;;;;;;
2022/12/30 20:38:21;;;;;;;0.90;0.70;;;21.40;55.90;;;;;;5961122;24;20404;-87
2022/12/30 20:44:32;;;;;;;0.80;0.60;;;21.40;55.90;;;;;;5924475;24;20352;-87
2022/12/30 20:47:12;;;;;;;0.80;0.60;;;21.40;55.90;;;;;;5942113;24;20380;-87
2022/12/30 20:50:02;;;;;;;1.03;0.70;;;21.40;56.00;;;;;;5931094;24;20367;-87
2022/12/30 20:52:43;;;;;;;0.90;0.70;;;21.40;56.00;;;;;;5951122;24;20388;-87
2022/12/30 21:09:13;;;;;;;0.90;0.70;;;21.40;56.00;;;;;;5938615;24;20385;-88
2022/12/30 21:12:27;;;;;;;1.03;0.70;;;21.40;56.00;;;;;;5897337;24;20411;-88
2022/12/30 21:15:53;;;;;;;0.80;0.60;;;21.40;56.00;;;;;;5950035;23;20482;-87
2022/12/30 21:18:50;;;;;;;0.80;0.60;;;21.40;56.00;;;;;;6053347;23;20387;-87
2022/12/30 21:22:01;;;;;;;;;;;;;;;;;;;;;
2022/12/30 21:25:23;;;;;;;;;;;;;;;;;;;;;
2022/12/30 21:28:19;;;;;;;1.00;0.60;;;21.40;56.00;;;;;;5965985;24;20386;-87
2022/12/30 21:31:11;;;;;;;1.00;0.70;;;21.30;55.90;;;;;;5979836;24;20413;-86
2022/12/30 21:34:15;;;;;;;0.90;0.63;;;21.40;56.00;;;;;;5958023;24;20416;-86
2022/12/30 22:04:51;;;;;;;;;;;;;;;;;;;;;
2022/12/30 22:07:45;;;;;;;0.90;0.70;;;21.30;55.90;;;;;;6037350;23;20356;-86
2022/12/30 22:10:31;;;;;;;0.90;0.70;;;21.30;55.90;;;;;;6035916;23;20400;-87
2022/12/30 22:13:10;;;;;;;0.90;0.60;;;21.30;55.90;;;;;;6036382;23;20379;-87
2022/12/30 22:16:03;;;;;;;;;;;;;;;;;;;;;
2022/12/30 22:18:57;;;;;;;1.00;0.70;;;21.40;55.90;;;;;;6047656;23;20355;-86
2022/12/30 22:21:34;;;;;;;0.93;0.67;;;21.30;55.80;;;;;;6094798;23;20414;-86
2022/12/30 22:24:06;;;;;;;0.90;0.60;;;21.30;55.80;;;;;;6187801;23;20367;-87
2022/12/30 22:26:35;;;;;;;0.87;0.70;;;21.40;55.90;;;;;;6189733;23;20356;-87
2022/12/30 22:29:13;;;;;;;0.80;0.60;;;21.30;55.80;;;;;;6188206;23;20378;-86
2022/12/30 22:32:05;;;;;;;1.00;0.70;;;21.40;55.90;;;;;;6188046;23;20405;-86
2022/12/30 22:38:24;;;;;;;;;;;;;;;;;;;;;
2022/12/30 22:41:14;;;;;;;0.80;0.63;;;21.40;55.90;;;;;;6213935;23;20399;-87
2022/12/30 22:44:11;;;;;;;0.87;0.63;;;21.30;55.80;;;;;;6212842;23;20347;-87
2022/12/30 22:47:51;;;;;;;;;;;;;;;;;;;;;
2022/12/30 22:50:37;;;;;;;0.80;0.60;;;21.40;55.90;;;;;;6022310;23;20435;-87
2022/12/30 22:53:29;;;;;;;1.10;0.73;;;21.30;55.80;;;;;;6083967;23;20379;-87
2022/12/30 22:59:41;;;;;;;;;;;;;;;;;;;;;
2022/12/30 23:02:22;;;;;;;0.90;0.70;;;21.30;55.80;;;;;;6123131;23;20409;-87
2022/12/30 23:05:15;;;;;;;0.80;0.60;;;21.30;56.40;;;;;;6123504;23;20446;-86
2022/12/30 23:08:02;;;;;;;0.90;0.60;;;21.30;55.80;;;;;;6098670;23;20379;-88
2022/12/30 23:17:13;;;;;;;1.00;0.80;;;21.30;55.80;;;;;;6123165;23;20361;-87
2022/12/30 23:20:26;;;;;;;0.90;0.60;;;21.30;55.80;;;;;;6122663;23;20387;-87
2022/12/30 23:26:03;;;;;;;0.83;0.70;;;21.30;55.90;;;;;;6243642;23;20353;-87
2022/12/30 23:28:52;;;;;;;0.83;0.60;;;21.30;55.90;;;;;;6243521;23;20359;-87
2022/12/30 23:31:28;;;;;;;0.93;0.67;;;21.30;55.90;;;;;;6191830;23;20379;-87
2022/12/30 23:34:17;;;;;;;0.90;0.60;;;21.30;55.90;;;;;;6242850;23;20358;-87
2022/12/30 23:37:16;;;;;;;;;;;;;;;;;;;;;
2022/12/30 23:39:56;;;;;;;0.80;0.60;;;21.30;55.80;;;;;;6243410;23;20347;-87
2022/12/30 23:42:31;;;;;;;0.80;0.60;;;21.30;55.90;;;;;;6241983;23;20366;-87
2022/12/30 23:45:53;;;;;;;;;;;;;;;;;;;;;
2022/12/30 23:48:41;;;;;;;;;;;;;;;;;;;;;
2022/12/30 23:51:18;;;;;;;0.90;0.73;;;21.30;55.90;;;;;;6150730;23;20497;-86
2022/12/30 23:53:51;;;;;;;0.90;0.70;;;21.30;55.90;;;;;;6127779;23;20387;-86
2022/12/30 23:56:34;;;;;;;0.90;0.60;;;21.30;55.80;;;;;;6151764;23;20429;-87
2022/12/30 23:59:05;;;;;;;1.10;0.70;;;21.30;55.80;;;;;;6151893;23;20392;-87
